createdAt,value
2019-01-02T00:01:39.747Z,92.40
2019-01-02T00:04:09.578Z,92.30
2019-01-02T00:06:38.949Z,92.10
2019-01-02T00:09:08.677Z,92.30
2019-01-02T00:11:39.527Z,92.50
2019-01-02T00:14:09.070Z,92.80
2019-01-02T00:16:38.489Z,93.00
2019-01-02T00:19:08.321Z,93.10
2019-01-02T00:21:38.078Z,93.50
2019-01-02T00:24:08.108Z,93.60
2019-01-02T00:26:38.205Z,94.00
2019-01-02T00:29:07.585Z,93.90
2019-01-02T00:31:36.903Z,94.40
2019-01-02T00:34:06.301Z,94.20
2019-01-02T00:36:35.655Z,94.40
2019-01-02T00:39:07.401Z,94.70
2019-01-02T00:41:36.796Z,94.30
2019-01-02T00:44:06.825Z,94.50
2019-01-02T00:46:36.266Z,94.70
2019-01-02T00:49:06.801Z,94.20
2019-01-02T00:51:39.233Z,94.30
2019-01-02T00:54:09.178Z,94.20
2019-01-02T00:56:38.691Z,94.10
2019-01-02T00:59:09.370Z,94.60
2019-01-02T01:01:38.973Z,94.80
2019-01-02T01:04:08.893Z,94.90
2019-01-02T01:06:38.485Z,94.40
2019-01-02T01:09:08.795Z,94.60
2019-01-02T01:11:38.215Z,94.70
2019-01-02T01:14:08.024Z,95.10
2019-01-02T01:16:40.230Z,95.00
2019-01-02T01:19:10.456Z,95.30
2019-01-02T01:21:39.849Z,95.00
2019-01-02T01:24:09.662Z,94.80
2019-01-02T01:26:39.032Z,94.50
2019-01-02T01:29:08.408Z,94.60
2019-01-02T01:31:38.340Z,94.80
2019-01-02T01:34:07.695Z,95.00
2019-01-02T01:36:37.169Z,94.40
2019-01-02T01:39:09.242Z,94.60
2019-01-02T01:41:42.522Z,95.00
2019-01-02T01:44:11.920Z,94.60
2019-01-02T01:46:44.842Z,94.80
2019-01-02T01:49:14.259Z,95.00
2019-01-02T01:51:44.105Z,95.40
2019-01-02T01:54:13.501Z,95.60
2019-01-02T01:56:42.844Z,96.10
2019-01-02T01:59:12.625Z,96.30
2019-01-02T02:01:42.067Z,96.40
2019-01-02T02:04:11.449Z,96.70
2019-01-02T02:06:40.994Z,96.70
2019-01-02T02:09:10.440Z,96.40
2019-01-02T02:11:40.160Z,96.00
2019-01-02T02:14:09.500Z,96.00
2019-01-02T02:16:38.914Z,96.20
2019-01-02T02:19:08.701Z,96.20
2019-01-02T02:21:38.609Z,96.30
2019-01-02T02:24:08.520Z,96.90
2019-01-02T02:26:37.909Z,97.30
2019-01-02T02:29:07.268Z,97.60
2019-01-02T02:31:37.164Z,97.80
2019-01-02T02:34:06.553Z,98.00
2019-01-02T02:36:36.368Z,98.10
2019-01-02T02:39:08.341Z,98.10
2019-01-02T02:41:38.308Z,98.10
2019-01-02T02:44:08.237Z,97.80
2019-01-02T02:46:38.068Z,97.70
2019-01-02T02:49:07.614Z,97.80
2019-01-02T02:51:37.490Z,97.50
2019-01-02T02:54:07.864Z,96.90
2019-01-02T02:56:37.681Z,96.50
2019-01-02T02:59:07.976Z,96.30
2019-01-02T03:01:38.683Z,96.10
2019-01-02T03:04:08.650Z,95.80
2019-01-02T03:06:38.908Z,95.60
2019-01-02T03:09:09.691Z,95.80
2019-01-02T03:11:39.170Z,95.60
2019-01-02T03:14:08.603Z,95.90
2019-01-02T03:16:38.507Z,95.10
2019-01-02T03:19:08.429Z,95.20
2019-01-02T03:21:38.327Z,95.10
2019-01-02T03:24:08.040Z,94.90
2019-01-02T03:26:37.417Z,95.10
2019-01-02T03:29:06.843Z,95.00
2019-01-02T03:31:36.713Z,94.90
2019-01-02T03:34:06.615Z,94.90
2019-01-02T03:36:36.001Z,94.70
2019-01-02T03:39:07.353Z,94.50
2019-01-02T03:41:36.753Z,94.60
2019-01-02T03:44:06.109Z,94.40
2019-01-02T03:46:35.570Z,94.10
2019-01-02T03:49:04.893Z,94.10
2019-01-02T03:51:34.241Z,93.90
2019-01-02T03:54:03.618Z,93.60
2019-01-02T03:56:32.965Z,93.90
2019-01-02T03:59:02.291Z,93.70
2019-01-02T04:01:31.683Z,93.40
2019-01-02T04:04:01.050Z,93.40
2019-01-02T04:06:30.405Z,93.20
2019-01-02T04:08:59.826Z,93.10
2019-01-02T04:11:29.187Z,93.20
2019-01-02T04:13:58.511Z,93.10
2019-01-02T04:16:28.380Z,93.00
2019-01-02T04:18:59.355Z,93.00
2019-01-02T04:21:28.709Z,93.10
2019-01-02T04:23:58.070Z,93.00
2019-01-02T04:26:27.368Z,92.80
2019-01-02T04:28:56.752Z,92.90
2019-01-02T04:31:26.437Z,93.00
2019-01-02T04:33:55.836Z,92.90
2019-01-02T04:36:25.147Z,93.10
2019-01-02T04:38:54.494Z,93.20
2019-01-02T04:41:23.865Z,93.30
2019-01-02T04:43:53.286Z,93.30
2019-01-02T04:46:23.789Z,93.40
2019-01-02T04:48:53.766Z,93.30
2019-01-02T04:51:23.188Z,93.30
2019-01-02T04:53:52.763Z,93.10
2019-01-02T04:56:22.307Z,93.20
2019-01-02T04:58:51.721Z,93.50
2019-01-02T05:01:21.152Z,93.30
2019-01-02T05:04:00.476Z,93.10
2019-01-02T05:06:29.839Z,93.10
2019-01-02T05:08:59.189Z,92.90
2019-01-02T05:11:28.570Z,93.30
2019-01-02T05:13:57.981Z,93.30
2019-01-02T05:16:27.423Z,93.30
2019-01-02T05:19:06.762Z,93.30
2019-01-02T05:21:36.196Z,93.10
2019-01-02T05:24:05.676Z,92.70
2019-01-02T05:26:35.073Z,92.70
2019-01-02T05:29:04.513Z,92.50
2019-01-02T05:31:33.869Z,92.40
2019-01-02T05:34:03.303Z,91.60
2019-01-02T05:36:32.695Z,91.90
2019-01-02T05:39:02.128Z,91.70
2019-01-02T05:41:31.530Z,91.30
2019-01-02T05:44:00.990Z,91.10
2019-01-02T05:46:30.313Z,91.20
2019-01-02T05:49:09.485Z,90.90
2019-01-02T05:51:55.075Z,91.00
2019-01-02T05:54:22.483Z,90.70
2019-01-02T05:56:49.646Z,90.90
2019-01-02T06:01:48.243Z,91.20
2019-01-02T06:04:20.165Z,91.20
2019-01-02T06:06:49.646Z,91.50
2019-01-02T06:09:23.223Z,91.60
2019-01-02T06:11:59.615Z,91.30
2019-01-02T06:14:29.070Z,91.70
2019-01-02T06:16:58.465Z,91.70
2019-01-02T06:20:27.780Z,92.10
2019-01-02T06:22:57.712Z,92.40
2019-01-02T06:25:27.090Z,92.50
2019-01-02T06:27:56.461Z,92.80
2019-01-02T06:30:25.803Z,93.30
2019-01-02T06:32:55.297Z,93.50
2019-01-02T06:35:24.704Z,93.80
2019-01-02T06:37:54.167Z,93.80
2019-01-02T06:40:23.545Z,94.00
2019-01-02T06:42:52.914Z,94.00
2019-01-02T06:45:22.332Z,94.10
2019-01-02T06:48:02.992Z,94.00
2019-01-02T06:50:59.046Z,93.90
2019-01-02T06:53:37.196Z,93.80
2019-01-02T06:56:06.572Z,93.90
2019-01-02T06:58:35.966Z,93.90
2019-01-02T07:01:05.815Z,94.10
2019-01-02T07:03:35.331Z,94.10
2019-01-02T07:06:04.858Z,93.70
2019-01-02T07:08:37.253Z,93.90
2019-01-02T07:11:12.968Z,94.00
2019-01-02T07:13:44.786Z,94.20
2019-01-02T07:16:22.061Z,94.30
2019-01-02T07:18:48.747Z,94.50
2019-01-02T07:21:18.107Z,94.50
2019-01-02T07:23:47.500Z,94.50
2019-01-02T07:26:16.856Z,94.40
2019-01-02T07:28:46.215Z,94.60
2019-01-02T07:31:15.573Z,94.90
2019-01-02T07:33:55.460Z,95.20
2019-01-02T07:37:19.895Z,94.90
2019-01-02T07:40:25.296Z,95.20
2019-01-02T07:43:45.158Z,95.20
2019-01-02T07:46:40.554Z,95.10
2019-01-02T07:49:56.641Z,95.20
2019-01-02T07:52:51.697Z,95.30
2019-01-02T07:56:05.893Z,95.10
2019-01-02T07:59:29.528Z,95.10
2019-01-02T08:02:38.281Z,95.10
2019-01-02T08:05:43.171Z,94.90
2019-01-02T08:08:52.813Z,95.10
2019-01-02T08:12:29.477Z,94.90
2019-01-02T08:15:51.214Z,94.70
2019-01-02T08:18:55.605Z,94.70
2019-01-02T08:22:11.213Z,94.50
2019-01-02T08:25:32.634Z,94.80
2019-01-02T08:28:56.361Z,94.90
2019-01-02T08:32:00.859Z,95.00
2019-01-02T08:35:09.249Z,95.40
2019-01-02T08:38:16.748Z,95.00
2019-01-02T08:41:19.641Z,94.90
2019-01-02T08:44:34.726Z,95.30
2019-01-02T08:47:37.179Z,94.70
2019-01-02T08:50:47.992Z,94.50
2019-01-02T08:53:33.170Z,94.60
2019-01-02T08:56:37.738Z,94.60
2019-01-02T09:00:08.579Z,94.90
2019-01-02T09:03:13.888Z,95.00
2019-01-02T09:06:23.573Z,94.90
2019-01-02T09:12:52.741Z,94.50
2019-01-02T09:16:24.530Z,94.80
2019-01-02T09:19:45.200Z,94.60
2019-01-02T09:22:51.217Z,94.20
2019-01-02T09:26:02.526Z,94.10
2019-01-02T09:29:19.518Z,94.10
2019-01-02T09:32:42.277Z,94.00
2019-01-02T09:35:46.408Z,94.20
2019-01-02T09:38:50.010Z,93.60
2019-01-02T09:42:15.369Z,93.60
2019-01-02T09:45:01.753Z,93.50
2019-01-02T09:48:18.331Z,93.20
2019-01-02T09:51:22.979Z,93.00
2019-01-02T09:54:23.424Z,92.90
2019-01-02T09:57:29.942Z,92.70
2019-01-02T10:00:24.223Z,92.20
2019-01-02T10:03:57.084Z,92.20
2019-01-02T10:07:14.854Z,92.10
2019-01-02T10:10:23.776Z,92.00
2019-01-02T10:13:20.509Z,91.70
2019-01-02T10:16:31.536Z,90.70
2019-01-02T10:19:16.068Z,90.40
2019-01-02T10:22:35.567Z,90.00
2019-01-02T10:25:37.481Z,89.10
2019-01-02T10:28:47.797Z,88.50
2019-01-02T10:31:33.763Z,88.50
2019-01-02T10:34:39.716Z,86.90
2019-01-02T10:37:38.151Z,84.70
2019-01-02T10:40:24.033Z,84.30
2019-01-02T10:43:42.749Z,84.30
2019-01-02T10:46:43.973Z,84.10
2019-01-02T10:49:44.096Z,82.10
2019-01-02T10:53:09.120Z,82.90
2019-01-02T10:56:24.528Z,79.90
2019-01-02T10:59:33.664Z,81.30
2019-01-02T11:03:02.404Z,78.50
2019-01-02T11:06:21.781Z,77.90
2019-01-02T11:09:18.102Z,76.80
2019-01-02T11:12:32.990Z,76.10
2019-01-02T11:15:52.316Z,75.10
2019-01-02T11:18:47.195Z,74.20
2019-01-02T11:22:21.819Z,73.60
2019-01-02T11:25:33.732Z,75.80
2019-01-02T11:28:53.145Z,72.70
2019-01-02T11:32:11.416Z,73.10
2019-01-02T11:35:39.559Z,73.50
2019-01-02T11:38:36.186Z,72.60
2019-01-02T11:41:36.136Z,71.50
2019-01-02T11:44:46.373Z,68.00
2019-01-02T11:47:15.777Z,66.60
2019-01-02T11:49:45.173Z,65.80
2019-01-02T11:52:20.621Z,63.90
2019-01-02T11:54:50.040Z,63.80
2019-01-02T11:57:19.576Z,64.20
2019-01-02T11:59:48.917Z,63.10
2019-01-02T12:02:18.301Z,63.00
2019-01-02T12:04:47.819Z,60.70
2019-01-02T12:07:17.263Z,59.30
2019-01-02T12:09:46.821Z,60.40
2019-01-02T12:12:19.235Z,60.00
2019-01-02T12:14:53.626Z,61.00
2019-01-02T12:17:27.235Z,60.70
2019-01-02T12:19:58.049Z,59.00
2019-01-02T12:22:31.683Z,59.70
2019-01-02T12:25:05.607Z,60.60
2019-01-02T12:27:42.441Z,60.00
2019-01-02T12:30:14.300Z,59.00
2019-01-02T12:32:48.057Z,59.20
2019-01-02T12:35:29.199Z,58.50
2019-01-02T12:38:08.157Z,57.70
2019-01-02T12:40:48.032Z,58.70
2019-01-02T12:43:17.683Z,60.10
2019-01-02T12:45:55.934Z,58.90
2019-01-02T12:48:32.457Z,59.50
2019-01-02T12:54:07.614Z,58.90
2019-01-02T12:57:10.222Z,59.10
2019-01-02T12:59:59.710Z,59.50
2019-01-02T13:03:14.688Z,59.90
2019-01-02T13:06:35.993Z,59.00
2019-01-02T13:09:41.772Z,57.90
2019-01-02T13:12:50.261Z,59.20
2019-01-02T13:16:15.087Z,59.00
2019-01-02T13:19:25.087Z,60.00
2019-01-02T13:22:56.382Z,60.00
2019-01-02T13:26:04.182Z,60.00
2019-01-02T13:29:42.285Z,59.50
2019-01-02T13:33:16.221Z,58.10
2019-01-02T13:40:35.682Z,59.10
2019-01-02T13:43:23.714Z,58.20
2019-01-02T13:46:32.267Z,58.90
2019-01-02T13:49:46.043Z,58.10
2019-01-02T13:52:31.548Z,58.90
2019-01-02T13:55:03.714Z,58.30
2019-01-02T13:57:33.149Z,58.80
2019-01-02T14:00:08.508Z,59.00
2019-01-02T14:02:37.828Z,59.50
2019-01-02T14:05:10.037Z,58.40
2019-01-02T14:07:51.918Z,58.10
2019-01-02T14:10:21.316Z,58.10
2019-01-02T14:12:50.749Z,57.90
2019-01-02T14:15:20.175Z,57.50
2019-01-02T14:17:49.574Z,57.20
2019-01-02T14:20:19.056Z,57.10
2019-01-02T14:23:06.761Z,58.10
2019-01-02T14:25:36.192Z,58.00
2019-01-02T14:28:06.218Z,57.60
2019-01-02T14:30:35.639Z,58.50
2019-01-02T14:33:05.055Z,57.70
2019-01-02T14:35:34.486Z,57.40
2019-01-02T14:38:03.945Z,57.40
2019-01-02T14:40:33.368Z,57.50
2019-01-02T14:43:02.814Z,57.70
2019-01-02T14:45:32.315Z,58.10
2019-01-02T14:48:01.755Z,58.10
2019-01-02T14:50:31.198Z,57.60
2019-01-02T14:53:01.184Z,59.40
2019-01-02T14:55:30.580Z,59.10
2019-01-02T14:58:00.643Z,59.30
2019-01-02T15:00:30.437Z,59.30
2019-01-02T15:03:00.269Z,59.20
2019-01-02T15:05:29.748Z,59.60
2019-01-02T15:08:00.107Z,59.70
2019-01-02T15:10:29.653Z,60.10
2019-01-02T15:12:59.151Z,61.20
2019-01-02T15:15:28.593Z,60.90
2019-01-02T15:17:58.567Z,61.80
2019-01-02T15:20:27.979Z,62.50
2019-01-02T15:23:03.626Z,61.50
2019-01-02T15:25:33.058Z,62.60
2019-01-02T15:28:02.654Z,63.30
2019-01-02T15:30:31.964Z,64.30
2019-01-02T15:33:01.326Z,65.30
2019-01-02T15:35:30.624Z,66.40
2019-01-02T15:37:59.949Z,66.50
2019-01-02T15:40:30.685Z,66.50
2019-01-02T15:42:59.985Z,66.90
2019-01-02T15:45:29.331Z,66.90
2019-01-02T15:47:58.639Z,67.30
2019-01-02T15:50:27.971Z,65.40
2019-01-02T15:52:57.274Z,66.70
2019-01-02T15:55:26.601Z,67.10
2019-01-02T15:57:55.923Z,67.30
2019-01-02T16:00:25.252Z,67.70
2019-01-02T16:02:54.523Z,68.60
2019-01-02T16:05:23.861Z,67.50
2019-01-02T16:07:53.169Z,67.10
2019-01-02T16:10:22.516Z,67.30
2019-01-02T16:12:51.919Z,67.40
2019-01-02T16:15:21.241Z,68.40
2019-01-02T16:17:50.571Z,67.40
2019-01-02T16:20:19.902Z,68.00
2019-01-02T16:22:49.202Z,68.50
2019-01-02T16:25:18.545Z,68.90
2019-01-02T16:27:47.863Z,69.60
2019-01-02T16:30:17.219Z,70.50
2019-01-02T16:32:46.531Z,70.50
2019-01-02T16:35:15.865Z,70.80
2019-01-02T16:37:45.147Z,70.70
2019-01-02T16:40:14.465Z,70.60
2019-01-02T16:42:43.802Z,71.00
2019-01-02T16:45:13.108Z,71.40
2019-01-02T16:47:42.462Z,71.90
2019-01-02T16:50:11.895Z,72.40
2019-01-02T16:52:41.237Z,72.80
2019-01-02T16:55:10.581Z,72.90
2019-01-02T16:57:39.927Z,73.10
2019-01-02T17:00:12.707Z,73.60
2019-01-02T17:02:42.102Z,73.50
2019-01-02T17:05:11.794Z,73.60
2019-01-02T17:07:43.562Z,73.40
2019-01-02T17:10:13.186Z,73.70
2019-01-02T17:12:42.569Z,74.20
2019-01-02T17:15:12.027Z,74.40
2019-01-02T17:17:41.556Z,74.90
2019-01-02T17:20:11.020Z,75.00
2019-01-02T17:22:41.666Z,75.30
2019-01-02T17:25:13.556Z,75.40
2019-01-02T17:27:43.192Z,75.40
2019-01-02T17:30:12.720Z,75.90
2019-01-02T17:32:42.138Z,76.50
2019-01-02T17:35:11.532Z,77.20
2019-01-02T17:37:40.879Z,77.60
2019-01-02T17:40:10.207Z,78.20
2019-01-02T17:42:39.595Z,79.00
2019-01-02T17:45:09.760Z,79.00
2019-01-02T17:47:39.110Z,79.20
2019-01-02T17:50:09.840Z,79.50
2019-01-02T17:52:39.201Z,79.80
2019-01-02T17:55:08.571Z,80.00
2019-01-02T17:57:40.224Z,80.00
2019-01-02T18:00:11.865Z,80.10
2019-01-02T18:02:41.151Z,80.30
2019-01-02T18:05:10.499Z,80.80
2019-01-02T18:07:39.829Z,80.80
2019-01-02T18:10:09.700Z,81.00
2019-01-02T18:12:39.133Z,81.00
2019-01-02T18:15:09.026Z,81.30
2019-01-02T18:17:38.340Z,81.70
2019-01-02T18:20:09.581Z,81.90
2019-01-02T18:22:39.154Z,81.90
2019-01-02T18:25:12.558Z,82.10
2019-01-02T18:27:41.871Z,82.30
2019-01-02T18:30:12.383Z,82.80
2019-01-02T18:32:41.861Z,83.00
2019-01-02T18:35:11.575Z,83.40
2019-01-02T18:37:40.931Z,83.80
2019-01-02T18:40:15.538Z,83.90
2019-01-02T18:42:45.136Z,84.20
2019-01-02T18:45:14.668Z,84.60
2019-01-02T18:47:44.307Z,84.80
2019-01-02T18:50:13.929Z,85.00
2019-01-02T18:52:43.274Z,85.30
2019-01-02T18:55:12.587Z,85.30
2019-01-02T18:57:41.971Z,85.70
2019-01-02T19:00:13.017Z,86.10
2019-01-02T19:02:42.503Z,86.60
2019-01-02T19:05:12.200Z,86.60
2019-01-02T19:07:41.710Z,86.60
2019-01-02T19:10:11.011Z,86.80
2019-01-02T19:12:43.063Z,86.80
2019-01-02T19:15:12.763Z,87.00
2019-01-02T19:17:42.338Z,87.00
2019-01-02T19:20:14.485Z,87.10
2019-01-02T19:22:43.842Z,87.20
2019-01-02T19:25:13.436Z,87.50
2019-01-02T19:27:43.910Z,87.30
2019-01-02T19:30:13.300Z,87.50
2019-01-02T19:32:42.797Z,87.50
2019-01-02T19:35:12.230Z,87.50
2019-01-02T19:37:41.730Z,87.70
2019-01-02T19:40:12.556Z,87.80
2019-01-02T19:42:42.015Z,87.80
2019-01-02T19:45:11.781Z,88.00
2019-01-02T19:47:41.255Z,88.10
2019-01-02T19:50:10.715Z,87.80
2019-01-02T19:52:43.230Z,87.70
2019-01-02T19:55:26.368Z,87.90
2019-01-02T19:57:55.951Z,87.90
2019-01-02T20:00:25.511Z,87.70
2019-01-02T20:02:55.042Z,87.50
2019-01-02T20:05:24.472Z,87.70
2019-01-02T20:07:54.178Z,87.70
2019-01-02T20:10:26.977Z,87.80
2019-01-02T20:12:56.526Z,87.90
2019-01-02T20:15:26.032Z,88.30
2019-01-02T20:17:55.525Z,88.60
2019-01-02T20:20:27.996Z,88.60
2019-01-02T20:23:01.092Z,88.70
2019-01-02T20:25:30.783Z,88.80
2019-01-02T20:28:01.392Z,89.10
2019-01-02T20:30:30.941Z,89.10
2019-01-02T20:33:00.471Z,88.90
2019-01-02T20:35:35.894Z,89.00
2019-01-02T20:38:06.723Z,89.20
2019-01-02T20:40:39.392Z,89.40
2019-01-02T20:43:12.006Z,89.50
2019-01-02T20:45:48.174Z,89.90
2019-01-02T20:48:21.855Z,90.00
2019-01-02T20:50:51.661Z,90.10
2019-01-02T20:53:21.517Z,90.30
2019-01-02T20:55:55.049Z,90.20
2019-01-02T20:58:24.471Z,90.30
2019-01-02T21:00:56.754Z,90.20
2019-01-02T21:03:27.113Z,90.30
2019-01-02T21:05:56.697Z,90.30
2019-01-02T21:08:27.198Z,90.40
2019-01-02T21:11:01.932Z,90.40
2019-01-02T21:13:32.629Z,90.40
2019-01-02T21:16:03.386Z,90.50
2019-01-02T21:18:40.133Z,90.60
2019-01-02T21:21:13.292Z,91.00
2019-01-02T21:23:42.921Z,91.10
2019-01-02T21:26:13.527Z,91.00
2019-01-02T21:28:47.060Z,91.20
2019-01-02T21:31:24.485Z,91.10
2019-01-02T21:33:53.926Z,91.10
2019-01-02T21:36:23.335Z,91.10
2019-01-02T21:38:52.754Z,91.20
2019-01-02T21:41:22.197Z,91.30
2019-01-02T21:43:51.672Z,91.40
2019-01-02T21:46:21.134Z,91.50
2019-01-02T21:48:50.597Z,91.50
2019-01-02T21:51:20.056Z,91.50
2019-01-02T21:53:49.459Z,91.50
2019-01-02T21:56:18.879Z,91.50
2019-01-02T21:58:49.936Z,91.50
2019-01-02T22:01:19.464Z,91.60
2019-01-02T22:03:48.942Z,91.80
2019-01-02T22:06:18.415Z,91.80
2019-01-02T22:08:47.977Z,92.10
2019-01-02T22:11:18.119Z,91.90
2019-01-02T22:13:48.680Z,91.80
2019-01-02T22:16:18.102Z,91.90
2019-01-02T22:18:47.414Z,92.10
2019-01-02T22:21:17.637Z,92.20
2019-01-02T22:23:47.072Z,92.20
2019-01-02T22:26:16.456Z,92.30
2019-01-02T22:28:45.842Z,92.50
2019-01-02T22:31:15.272Z,92.60
2019-01-02T22:33:44.609Z,92.70
2019-01-02T22:36:13.998Z,92.80
2019-01-02T22:38:43.347Z,92.90
2019-01-02T22:41:12.812Z,93.00
2019-01-02T22:43:42.239Z,93.10
2019-01-02T22:46:11.663Z,93.20
2019-01-02T22:48:41.017Z,93.30
2019-01-02T22:51:10.391Z,93.40
2019-01-02T22:53:39.783Z,93.60
2019-01-02T22:56:09.150Z,93.70
2019-01-02T22:58:38.493Z,93.70
2019-01-02T23:01:36.064Z,93.80
2019-01-02T23:04:27.510Z,94.00
2019-01-02T23:07:14.725Z,94.00
2019-01-02T23:10:09.182Z,94.10
2019-01-02T23:13:15.747Z,94.20
2019-01-02T23:16:09.924Z,94.40
2019-01-02T23:19:07.416Z,94.40
2019-01-02T23:22:07.851Z,94.40
2019-01-02T23:24:54.974Z,94.60
2019-01-02T23:27:49.112Z,94.70
2019-01-02T23:30:55.516Z,94.80
2019-01-02T23:33:43.815Z,94.80
2019-01-02T23:36:32.236Z,95.00
2019-01-02T23:39:29.865Z,95.10
2019-01-02T23:42:16.804Z,95.20
2019-01-02T23:45:14.190Z,95.30
2019-01-02T23:47:58.368Z,95.50
2019-01-02T23:50:55.635Z,95.50
2019-01-02T23:53:42.885Z,95.60
2019-01-02T23:56:31.157Z,95.70
2019-01-02T23:59:18.391Z,95.80
